• Join FlightAware (Why Join?)
  • Login
  • US Flag 
11:24AM EDT


 

Airport Tracker/Info


-or-


 

Live Flight TrackerFlight Track Log ✈ RPA3869 ✈ 25-May-2013 ✈ KEWR - CYYZ

Flight Track Log - Related Links

Times and Time Zones

All times are in EDT time to prevent confusion due to time zone crossing. See the RPA3869 flight status page for this flight to view local times or setup timezone preferences in your user account.

Time Position Orientation Groundspeed Altitude Reporting Facility
EDT Latitude Longitude Course Direction KTS MPH feet Rate Location/Type
04:31PM 40.7167 -74.1500 316° Northwest 179 206 1,600  Level New York TRACON
04:32PM 40.7500 -74.0833 57° Northeast 213 245 3,300 2,100 Climbing New York TRACON
04:33PM 40.7833 -74.1333 311° West 200 230 5,700 2,220 Climbing New York TRACON
04:34PM 40.7833 -74.2000 270° West 205 236 7,800 1,500 Climbing New York TRACON
04:35PM 40.8000 -74.2833 285° West 240 276 8,800 1,260 Climbing New York TRACON
04:36PM 40.8500 -74.3333 323° Northwest 229 264 10,400 1,620 Climbing New York TRACON
04:37PM 41.0407 -74.5856 316° Northwest  Level FlightAware Approximate
04:37PM 40.8894 -74.3917 312° West 253 291 12,000  Level New York Center
04:38PM 40.9375 -74.4517 317° Northwest 253 291 13,400 900 Climbing New York Center
04:39PM 40.9919 -74.5153 319° Northwest 253 291 13,900 240 Climbing New York Center
04:40PM 41.0519 -74.5900 317° Northwest 286 329 13,900  Level New York Center
04:41PM 41.1039 -74.6536 317° Northwest 286 329 13,900  Level New York Center
04:42PM 41.1592 -74.7506 307° West 292 336 13,900  Level New York Center
04:43PM 41.1958 -74.8353 300° West 302 348 13,900 420 Level New York Center
04:44PM 41.2422 -74.9403 300° West 297 342 14,800 1,320 Climbing New York Center
04:45PM 41.2789 -75.0225 301° West 288 331 16,600 1,680 Climbing New York Center
04:46PM 41.3156 -75.1022 302° West 261 300 18,200 1,380 Climbing New York Center
04:47PM 41.3419 -75.1731 296° West 250 288 19,400 1,140 Climbing New York Center
04:48PM 41.3786 -75.2528 302° West 250 288 20,500 1,080 Climbing New York Center
04:49PM 41.4108 -75.3325 298° West 250 288 21,600 1,020 Climbing New York Center
04:50PM 41.4453 -75.4122 300° West 250 288 22,600 900 Climbing New York Center
04:51PM 41.4794 -75.4947 299° West 250 288 23,500 660 Climbing New York Center
04:52PM 41.5053 -75.5825 291° West 250 288 24,000 240 Climbing New York Center
04:53PM 41.5322 -75.6842 290° West 262 302 24,000  Level New York Center
04:54PM 41.5611 -75.7889 290° West 287 330 24,000  Level New York Center
04:55PM 41.5961 -75.8969 293° West 305 351 24,000  Level New York Center
04:56PM 41.6267 -76.0103 290° West 318 366 24,000  Level New York Center
04:57PM 41.6592 -76.1211 291° West 318 366 24,000  Level New York Center
04:58PM 41.6894 -76.2347 290° West 318 366 24,000  Level New York Center
04:59PM 41.7217 -76.3486 291° West 318 366 24,000  Level New York Center
05:00PM 41.7536 -76.4625 291° West 323 372 24,000  Level New York Center
05:01PM 41.7944 -76.5661 298° West 323 372 24,000  Level New York Center
05:02PM 41.8528 -76.6519 312° West 317 365 24,000  Level New York Center
05:03PM 41.9108 -76.7406 311° West 317 365 24,000  Level New York Center
05:04PM 41.9686 -76.8294 311° West 317 365 24,000  Level New York Center
05:05PM 42.0289 -76.9236 311° West 320 368 24,000  Level Cleveland Center
05:06PM 42.0881 -77.0156 311° West 328 377 24,000  Level Cleveland Center
05:07PM 42.1392 -77.1136 305° West 323 372 24,000  Level Cleveland Center
05:08PM 42.1919 -77.2114 306° West 323 372 24,000  Level Cleveland Center
05:09PM 42.2450 -77.3125 305° West 328 377 24,000  Level Cleveland Center
05:10PM 42.2978 -77.4136 305° West 328 377 24,000  Level Cleveland Center
05:11PM 42.3506 -77.5150 305° West 328 377 24,000  Level Cleveland Center
05:12PM 42.3989 -77.6028 307° West 328 377 24,000  Level Cleveland Center
05:13PM 42.4517 -77.7100 304° West 328 377 24,000  Level Cleveland Center
05:14PM 42.5019 -77.8092 305° West 328 377 24,000  Level Cleveland Center
05:15PM 42.5564 -77.9081 307° West 328 377 24,000  Level Cleveland Center
05:16PM 42.6089 -78.0131 304° West 328 377 24,000  Level Cleveland Center
05:17PM 42.6611 -78.1156 305° West 328 377 24,000 -600 Level Cleveland Center
05:18PM 42.7153 -78.2150 307° West 328 377 22,800 -1,320 Descending Cleveland Center
05:19PM 42.7631 -78.3150 303° West 323 372 21,400 -1,500 Descending Cleveland Center
05:20PM 42.8108 -78.4125 304° West 323 372 19,900 -1,500 Descending Cleveland Center
05:21PM 42.8561 -78.5014 305° West 312 359 18,400 -3,000 Descending Cleveland Center
05:22PM 42.9103 -78.6075 305° West 305 351 14,000 -1,380 Descending Cleveland Center
05:23PM 42.9511 -78.6856 306° West 300 345 15,700 -360 Climbing Cleveland Center
05:25PM 43.0333 -78.8333 307° West 300 345 13,100 -1,620 Descending Toronto Center